sensor_id;sensor_type;location;lat;lon;timestamp;temperature;humidity
46283;DHT22;32017;43.700;11.820;2022-09-13T00:00:35;14.70;99.90
46283;DHT22;32017;43.700;11.820;2022-09-13T00:02:48;14.80;99.90
46283;DHT22;32017;43.700;11.820;2022-09-13T00:04:52;14.80;99.90
46283;DHT22;32017;43.700;11.820;2022-09-13T00:06:56;14.90;99.90
46283;DHT22;32017;43.700;11.820;2022-09-13T00:09:00;14.90;99.90
46283;DHT22;32017;43.700;11.820;2022-09-13T00:11:05;14.90;99.90
46283;DHT22;32017;43.700;11.820;2022-09-13T00:13:08;14.90;99.90
46283;DHT22;32017;43.700;11.820;2022-09-13T00:15:12;14.90;99.90
46283;DHT22;32017;43.700;11.820;2022-09-13T00:17:14;14.80;99.90
46283;DHT22;32017;43.700;11.820;2022-09-13T00:19:17;14.70;99.90
46283;DHT22;32017;43.700;11.820;2022-09-13T00:21:20;14.60;99.90
46283;DHT22;32017;43.700;11.820;2022-09-13T00:23:23;14.50;99.90
46283;DHT22;32017;43.700;11.820;2022-09-13T00:25:28;14.50;99.90
46283;DHT22;32017;43.700;11.820;2022-09-13T00:27:34;14.60;99.90
46283;DHT22;32017;43.700;11.820;2022-09-13T00:29:52;14.50;99.90
46283;DHT22;32017;43.700;11.820;2022-09-13T00:31:55;14.40;99.90
46283;DHT22;32017;43.700;11.820;2022-09-13T00:34:01;14.30;99.90
46283;DHT22;32017;43.700;11.820;2022-09-13T00:36:05;14.40;99.90
46283;DHT22;32017;43.700;11.820;2022-09-13T00:38:08;14.40;99.90
46283;DHT22;32017;43.700;11.820;2022-09-13T00:40:30;14.30;99.90
46283;DHT22;32017;43.700;11.820;2022-09-13T00:42:37;14.50;99.90
46283;DHT22;32017;43.700;11.820;2022-09-13T00:46:56;14.20;99.90
46283;DHT22;32017;43.700;11.820;2022-09-13T00:49:00;14.30;99.90
46283;DHT22;32017;43.700;11.820;2022-09-13T00:51:05;14.30;99.90
46283;DHT22;32017;43.700;11.820;2022-09-13T00:53:20;14.10;99.90
46283;DHT22;32017;43.700;11.820;2022-09-13T00:55:30;14.10;99.90
46283;DHT22;32017;43.700;11.820;2022-09-13T00:57:35;14.00;99.90
46283;DHT22;32017;43.700;11.820;2022-09-13T01:02:16;14.20;99.90
46283;DHT22;32017;43.700;11.820;2022-09-13T01:04:19;14.00;99.90
46283;DHT22;32017;43.700;11.820;2022-09-13T01:06:31;14.00;99.90
46283;DHT22;32017;43.700;11.820;2022-09-13T01:08:42;14.10;99.90
46283;DHT22;32017;43.700;11.820;2022-09-13T01:10:46;14.00;99.90
46283;DHT22;32017;43.700;11.820;2022-09-13T01:13:00;13.90;99.90
46283;DHT22;32017;43.700;11.820;2022-09-13T01:15:07;13.80;99.90
46283;DHT22;32017;43.700;11.820;2022-09-13T01:17:29;13.70;99.90
46283;DHT22;32017;43.700;11.820;2022-09-13T01:19:32;13.60;99.90
46283;DHT22;32017;43.700;11.820;2022-09-13T01:23:55;13.70;99.90
46283;DHT22;32017;43.700;11.820;2022-09-13T01:29:13;13.80;99.90
46283;DHT22;32017;43.700;11.820;2022-09-13T01:37:13;13.70;99.90
46283;DHT22;32017;43.700;11.820;2022-09-13T01:39:27;13.60;99.90
46283;DHT22;32017;43.700;11.820;2022-09-13T01:42:39;13.50;99.90
46283;DHT22;32017;43.700;11.820;2022-09-13T01:46:12;13.50;99.90
46283;DHT22;32017;43.700;11.820;2022-09-13T01:50:38;13.40;99.90
46283;DHT22;32017;43.700;11.820;2022-09-13T01:57:15;13.00;99.90
46283;DHT22;32017;43.700;11.820;2022-09-13T02:01:41;13.20;99.90
46283;DHT22;32017;43.700;11.820;2022-09-13T02:03:53;13.30;99.90
46283;DHT22;32017;43.700;11.820;2022-09-13T02:06:02;13.30;99.90
46283;DHT22;32017;43.700;11.820;2022-09-13T02:08:33;13.30;99.90
46283;DHT22;32017;43.700;11.820;2022-09-13T02:10:39;13.40;99.90
46283;DHT22;32017;43.700;11.820;2022-09-13T02:12:42;13.30;99.90
46283;DHT22;32017;43.700;11.820;2022-09-13T02:14:50;13.20;99.90
46283;DHT22;32017;43.700;11.820;2022-09-13T02:16:56;13.10;99.90
46283;DHT22;32017;43.700;11.820;2022-09-13T02:19:07;13.20;99.90
46283;DHT22;32017;43.700;11.820;2022-09-13T02:21:19;13.30;99.90
46283;DHT22;32017;43.700;11.820;2022-09-13T02:23:28;13.30;99.90
46283;DHT22;32017;43.700;11.820;2022-09-13T02:25:35;13.30;99.90
46283;DHT22;32017;43.700;11.820;2022-09-13T02:27:39;13.20;99.90
46283;DHT22;32017;43.700;11.820;2022-09-13T02:29:44;13.10;99.90
46283;DHT22;32017;43.700;11.820;2022-09-13T02:32:03;13.00;99.90
46283;DHT22;32017;43.700;11.820;2022-09-13T02:34:19;13.00;99.90
46283;DHT22;32017;43.700;11.820;2022-09-13T02:36:23;12.90;99.90
46283;DHT22;32017;43.700;11.820;2022-09-13T02:38:43;12.80;99.90
46283;DHT22;32017;43.700;11.820;2022-09-13T02:41:18;12.70;99.90
46283;DHT22;32017;43.700;11.820;2022-09-13T02:43:39;12.60;99.90
46283;DHT22;32017;43.700;11.820;2022-09-13T02:45:53;12.60;99.90
46283;DHT22;32017;43.700;11.820;2022-09-13T02:47:58;12.50;99.90
46283;DHT22;32017;43.700;11.820;2022-09-13T02:50:06;12.50;99.90
46283;DHT22;32017;43.700;11.820;2022-09-13T02:52:16;12.60;99.90
46283;DHT22;32017;43.700;11.820;2022-09-13T02:54:49;12.80;99.90
46283;DHT22;32017;43.700;11.820;2022-09-13T02:56:52;12.70;99.90
46283;DHT22;32017;43.700;11.820;2022-09-13T03:01:14;12.70;99.90
46283;DHT22;32017;43.700;11.820;2022-09-13T03:03:28;12.70;99.90
46283;DHT22;32017;43.700;11.820;2022-09-13T03:05:34;12.70;99.90
46283;DHT22;32017;43.700;11.820;2022-09-13T03:07:39;12.70;99.90
46283;DHT22;32017;43.700;11.820;2022-09-13T03:09:51;12.50;99.90
46283;DHT22;32017;43.700;11.820;2022-09-13T03:12:01;12.60;99.90
46283;DHT22;32017;43.700;11.820;2022-09-13T03:30:03;12.50;99.90
46283;DHT22;32017;43.700;11.820;2022-09-13T03:32:15;12.40;99.90
46283;DHT22;32017;43.700;11.820;2022-09-13T03:34:33;12.40;99.90
46283;DHT22;32017;43.700;11.820;2022-09-13T03:36:43;12.30;99.90
46283;DHT22;32017;43.700;11.820;2022-09-13T03:38:53;12.30;99.90
46283;DHT22;32017;43.700;11.820;2022-09-13T03:40:59;12.20;99.90
46283;DHT22;32017;43.700;11.820;2022-09-13T03:45:15;12.30;99.90
46283;DHT22;32017;43.700;11.820;2022-09-13T03:47:19;12.30;99.90
46283;DHT22;32017;43.700;11.820;2022-09-13T03:49:23;12.20;99.90
46283;DHT22;32017;43.700;11.820;2022-09-13T03:51:27;12.20;99.90
46283;DHT22;32017;43.700;11.820;2022-09-13T03:53:46;12.20;99.90
46283;DHT22;32017;43.700;11.820;2022-09-13T03:55:55;12.30;99.90
46283;DHT22;32017;43.700;11.820;2022-09-13T03:57:58;12.20;99.90
46283;DHT22;32017;43.700;11.820;2022-09-13T04:00:02;12.20;99.90
46283;DHT22;32017;43.700;11.820;2022-09-13T04:02:06;12.30;99.90
46283;DHT22;32017;43.700;11.820;2022-09-13T04:04:13;12.40;99.90
46283;DHT22;32017;43.700;11.820;2022-09-13T04:06:17;12.30;99.90
46283;DHT22;32017;43.700;11.820;2022-09-13T04:08:21;12.30;99.90
46283;DHT22;32017;43.700;11.820;2022-09-13T04:10:43;12.20;99.90
46283;DHT22;32017;43.700;11.820;2022-09-13T04:12:45;12.00;99.90
46283;DHT22;32017;43.700;11.820;2022-09-13T04:14:47;11.90;99.90
46283;DHT22;32017;43.700;11.820;2022-09-13T04:16:55;12.00;99.90
46283;DHT22;32017;43.700;11.820;2022-09-13T04:18:58;12.10;99.90
46283;DHT22;32017;43.700;11.820;2022-09-13T04:21:09;12.20;99.90
46283;DHT22;32017;43.700;11.820;2022-09-13T04:23:11;12.30;99.90
46283;DHT22;32017;43.700;11.820;2022-09-13T04:25:33;12.30;99.90
46283;DHT22;32017;43.700;11.820;2022-09-13T04:27:35;12.30;99.90
46283;DHT22;32017;43.700;11.820;2022-09-13T04:29:38;12.30;99.90
46283;DHT22;32017;43.700;11.820;2022-09-13T04:31:41;12.20;99.90
46283;DHT22;32017;43.700;11.820;2022-09-13T04:33:45;12.30;99.90
46283;DHT22;32017;43.700;11.820;2022-09-13T04:35:53;12.30;99.90
46283;DHT22;32017;43.700;11.820;2022-09-13T04:38:00;12.30;99.90
46283;DHT22;32017;43.700;11.820;2022-09-13T04:40:07;12.30;99.90
46283;DHT22;32017;43.700;11.820;2022-09-13T04:42:10;12.10;99.90
46283;DHT22;32017;43.700;11.820;2022-09-13T04:44:14;12.10;99.90
46283;DHT22;32017;43.700;11.820;2022-09-13T04:46:17;12.10;99.90
46283;DHT22;32017;43.700;11.820;2022-09-13T04:48:22;12.20;99.90
46283;DHT22;32017;43.700;11.820;2022-09-13T04:50:25;12.00;99.90
46283;DHT22;32017;43.700;11.820;2022-09-13T04:52:28;11.80;99.90
46283;DHT22;32017;43.700;11.820;2022-09-13T04:54:35;11.70;99.90
46283;DHT22;32017;43.700;11.820;2022-09-13T04:56:39;11.60;99.90
46283;DHT22;32017;43.700;11.820;2022-09-13T04:58:42;11.50;99.90
46283;DHT22;32017;43.700;11.820;2022-09-13T05:00:52;11.60;99.90
46283;DHT22;32017;43.700;11.820;2022-09-13T05:02:57;11.60;99.90
46283;DHT22;32017;43.700;11.820;2022-09-13T05:05:04;11.60;99.90
46283;DHT22;32017;43.700;11.820;2022-09-13T05:07:07;11.60;99.90
46283;DHT22;32017;43.700;11.820;2022-09-13T05:09:11;11.50;99.90
46283;DHT22;32017;43.700;11.820;2022-09-13T05:11:21;11.60;99.90
46283;DHT22;32017;43.700;11.820;2022-09-13T05:13:24;11.50;99.90
46283;DHT22;32017;43.700;11.820;2022-09-13T05:15:28;11.60;99.90
46283;DHT22;32017;43.700;11.820;2022-09-13T05:17:34;11.60;99.90
46283;DHT22;32017;43.700;11.820;2022-09-13T05:19:37;11.60;99.90
46283;DHT22;32017;43.700;11.820;2022-09-13T05:21:49;11.50;99.90
46283;DHT22;32017;43.700;11.820;2022-09-13T05:23:51;11.50;99.90
46283;DHT22;32017;43.700;11.820;2022-09-13T05:25:56;11.40;99.90
46283;DHT22;32017;43.700;11.820;2022-09-13T05:27:59;11.50;99.90
46283;DHT22;32017;43.700;11.820;2022-09-13T05:30:02;11.50;99.90
46283;DHT22;32017;43.700;11.820;2022-09-13T05:32:05;11.50;99.90
46283;DHT22;32017;43.700;11.820;2022-09-13T05:34:09;11.50;99.90
46283;DHT22;32017;43.700;11.820;2022-09-13T05:36:31;11.50;99.90
46283;DHT22;32017;43.700;11.820;2022-09-13T05:38:34;11.50;99.90
46283;DHT22;32017;43.700;11.820;2022-09-13T05:40:38;11.50;99.90
46283;DHT22;32017;43.700;11.820;2022-09-13T05:42:42;11.60;99.90
46283;DHT22;32017;43.700;11.820;2022-09-13T05:44:44;11.70;99.90
46283;DHT22;32017;43.700;11.820;2022-09-13T05:46:47;11.90;99.90
46283;DHT22;32017;43.700;11.820;2022-09-13T05:48:51;11.90;99.90
46283;DHT22;32017;43.700;11.820;2022-09-13T05:51:02;11.90;99.90
46283;DHT22;32017;43.700;11.820;2022-09-13T05:53:05;11.80;99.90
46283;DHT22;32017;43.700;11.820;2022-09-13T05:55:08;11.80;99.90
46283;DHT22;32017;43.700;11.820;2022-09-13T05:57:12;11.70;99.90
46283;DHT22;32017;43.700;11.820;2022-09-13T05:59:33;11.70;99.90
46283;DHT22;32017;43.700;11.820;2022-09-13T06:01:38;11.70;99.90
46283;DHT22;32017;43.700;11.820;2022-09-13T06:04:00;11.70;99.90
46283;DHT22;32017;43.700;11.820;2022-09-13T06:06:05;11.70;99.90
46283;DHT22;32017;43.700;11.820;2022-09-13T06:08:07;11.70;99.90
46283;DHT22;32017;43.700;11.820;2022-09-13T06:10:11;11.80;99.90
46283;DHT22;32017;43.700;11.820;2022-09-13T06:12:14;11.90;99.90
46283;DHT22;32017;43.700;11.820;2022-09-13T06:14:25;12.00;99.90
46283;DHT22;32017;43.700;11.820;2022-09-13T06:16:35;12.10;99.90
46283;DHT22;32017;43.700;11.820;2022-09-13T06:18:39;12.30;99.90
46283;DHT22;32017;43.700;11.820;2022-09-13T06:20:43;12.40;99.90
46283;DHT22;32017;43.700;11.820;2022-09-13T06:22:46;12.40;99.90
46283;DHT22;32017;43.700;11.820;2022-09-13T06:25:01;12.60;99.90
46283;DHT22;32017;43.700;11.820;2022-09-13T06:27:04;12.60;99.90
46283;DHT22;32017;43.700;11.820;2022-09-13T06:29:09;12.70;99.90
46283;DHT22;32017;43.700;11.820;2022-09-13T06:31:14;12.80;99.90
46283;DHT22;32017;43.700;11.820;2022-09-13T06:33:16;13.00;99.90
46283;DHT22;32017;43.700;11.820;2022-09-13T06:35:30;13.20;99.90
46283;DHT22;32017;43.700;11.820;2022-09-13T06:37:33;13.30;99.90
46283;DHT22;32017;43.700;11.820;2022-09-13T06:39:39;13.50;99.90
46283;DHT22;32017;43.700;11.820;2022-09-13T06:41:42;13.60;99.90
46283;DHT22;32017;43.700;11.820;2022-09-13T06:43:45;13.80;99.90
46283;DHT22;32017;43.700;11.820;2022-09-13T06:45:48;13.80;99.90
46283;DHT22;32017;43.700;11.820;2022-09-13T06:47:52;13.90;99.90
46283;DHT22;32017;43.700;11.820;2022-09-13T06:49:58;14.00;99.90
46283;DHT22;32017;43.700;11.820;2022-09-13T06:52:02;14.20;99.90
46283;DHT22;32017;43.700;11.820;2022-09-13T06:54:05;14.30;99.90
46283;DHT22;32017;43.700;11.820;2022-09-13T06:56:10;14.40;99.90
46283;DHT22;32017;43.700;11.820;2022-09-13T06:58:13;14.50;99.90
46283;DHT22;32017;43.700;11.820;2022-09-13T07:00:18;14.70;99.90
46283;DHT22;32017;43.700;11.820;2022-09-13T07:02:21;14.80;99.90
46283;DHT22;32017;43.700;11.820;2022-09-13T07:04:24;14.80;99.90
46283;DHT22;32017;43.700;11.820;2022-09-13T07:06:38;15.00;99.90
46283;DHT22;32017;43.700;11.820;2022-09-13T07:08:42;15.10;99.90
46283;DHT22;32017;43.700;11.820;2022-09-13T07:10:55;15.20;99.90
46283;DHT22;32017;43.700;11.820;2022-09-13T07:12:58;15.40;99.90
46283;DHT22;32017;43.700;11.820;2022-09-13T07:15:02;15.60;99.90
46283;DHT22;32017;43.700;11.820;2022-09-13T07:17:05;15.80;99.90
46283;DHT22;32017;43.700;11.820;2022-09-13T07:19:29;15.90;99.90
46283;DHT22;32017;43.700;11.820;2022-09-13T07:21:34;16.10;99.90
46283;DHT22;32017;43.700;11.820;2022-09-13T07:23:37;16.30;99.90
46283;DHT22;32017;43.700;11.820;2022-09-13T07:25:40;16.40;99.90
46283;DHT22;32017;43.700;11.820;2022-09-13T07:27:43;16.50;99.90
46283;DHT22;32017;43.700;11.820;2022-09-13T07:29:46;16.70;99.90
46283;DHT22;32017;43.700;11.820;2022-09-13T07:31:51;16.80;99.90
46283;DHT22;32017;43.700;11.820;2022-09-13T07:33:55;16.90;99.90
46283;DHT22;32017;43.700;11.820;2022-09-13T07:36:02;17.00;99.90
46283;DHT22;32017;43.700;11.820;2022-09-13T07:38:14;17.10;99.90
46283;DHT22;32017;43.700;11.820;2022-09-13T07:40:16;17.20;99.90
46283;DHT22;32017;43.700;11.820;2022-09-13T07:42:19;17.40;99.90
46283;DHT22;32017;43.700;11.820;2022-09-13T07:44:28;17.60;99.90
46283;DHT22;32017;43.700;11.820;2022-09-13T07:46:33;17.70;99.90
46283;DHT22;32017;43.700;11.820;2022-09-13T07:48:38;17.90;99.90
46283;DHT22;32017;43.700;11.820;2022-09-13T07:50:42;18.00;99.90
46283;DHT22;32017;43.700;11.820;2022-09-13T07:52:44;18.00;99.90
46283;DHT22;32017;43.700;11.820;2022-09-13T07:54:47;18.00;99.90
46283;DHT22;32017;43.700;11.820;2022-09-13T07:56:53;18.00;99.90
46283;DHT22;32017;43.700;11.820;2022-09-13T07:58:57;18.50;99.90
46283;DHT22;32017;43.700;11.820;2022-09-13T08:01:04;18.60;99.90
46283;DHT22;32017;43.700;11.820;2022-09-13T08:03:09;19.00;99.90
46283;DHT22;32017;43.700;11.820;2022-09-13T08:05:31;19.10;99.90
46283;DHT22;32017;43.700;11.820;2022-09-13T08:07:34;19.20;99.90
46283;DHT22;32017;43.700;11.820;2022-09-13T08:09:39;19.40;99.90
46283;DHT22;32017;43.700;11.820;2022-09-13T08:11:46;19.40;99.90
46283;DHT22;32017;43.700;11.820;2022-09-13T08:13:52;19.70;99.90
46283;DHT22;32017;43.700;11.820;2022-09-13T08:16:04;19.80;99.90
46283;DHT22;32017;43.700;11.820;2022-09-13T08:18:07;19.70;99.90
46283;DHT22;32017;43.700;11.820;2022-09-13T08:20:12;19.90;99.90
46283;DHT22;32017;43.700;11.820;2022-09-13T08:22:16;20.10;99.90
46283;DHT22;32017;43.700;11.820;2022-09-13T08:24:19;20.20;99.90
46283;DHT22;32017;43.700;11.820;2022-09-13T08:26:23;20.40;99.90
46283;DHT22;32017;43.700;11.820;2022-09-13T08:28:26;20.50;99.90
46283;DHT22;32017;43.700;11.820;2022-09-13T08:30:29;20.90;99.90
46283;DHT22;32017;43.700;11.820;2022-09-13T08:32:34;20.90;99.90
46283;DHT22;32017;43.700;11.820;2022-09-13T08:34:40;20.80;99.90
46283;DHT22;32017;43.700;11.820;2022-09-13T08:36:42;20.90;99.90
46283;DHT22;32017;43.700;11.820;2022-09-13T08:38:46;20.80;99.90
46283;DHT22;32017;43.700;11.820;2022-09-13T08:40:57;21.00;99.90
46283;DHT22;32017;43.700;11.820;2022-09-13T08:45:25;21.20;99.90
46283;DHT22;32017;43.700;11.820;2022-09-13T08:47:37;21.40;99.90
46283;DHT22;32017;43.700;11.820;2022-09-13T08:49:47;21.70;99.90
46283;DHT22;32017;43.700;11.820;2022-09-13T08:51:55;21.80;99.90
46283;DHT22;32017;43.700;11.820;2022-09-13T08:57:21;22.30;99.90
46283;DHT22;32017;43.700;11.820;2022-09-13T09:01:20;23.00;99.90
46283;DHT22;32017;43.700;11.820;2022-09-13T09:05:46;23.50;99.90
46283;DHT22;32017;43.700;11.820;2022-09-13T09:07:52;23.70;99.90
46283;DHT22;32017;43.700;11.820;2022-09-13T09:10:01;23.80;99.90
46283;DHT22;32017;43.700;11.820;2022-09-13T09:12:16;24.10;99.90
46283;DHT22;32017;43.700;11.820;2022-09-13T09:14:26;24.10;99.90
46283;DHT22;32017;43.700;11.820;2022-09-13T09:18:43;24.40;99.90
46283;DHT22;32017;43.700;11.820;2022-09-13T09:20:54;23.80;99.90
46283;DHT22;32017;43.700;11.820;2022-09-13T09:23:02;23.80;99.90
46283;DHT22;32017;43.700;11.820;2022-09-13T09:25:07;24.10;99.90
46283;DHT22;32017;43.700;11.820;2022-09-13T09:27:16;24.40;99.90
46283;DHT22;32017;43.700;11.820;2022-09-13T09:29:25;24.70;99.90
46283;DHT22;32017;43.700;11.820;2022-09-13T09:33:49;24.80;99.90
46283;DHT22;32017;43.700;11.820;2022-09-13T09:38:37;25.00;99.90
46283;DHT22;32017;43.700;11.820;2022-09-13T09:40:44;24.90;99.90
46283;DHT22;32017;43.700;11.820;2022-09-13T09:42:49;25.10;99.90
46283;DHT22;32017;43.700;11.820;2022-09-13T09:45:26;25.30;99.90
46283;DHT22;32017;43.700;11.820;2022-09-13T09:47:24;25.20;99.90
46283;DHT22;32017;43.700;11.820;2022-09-13T09:49:44;25.20;99.90
46283;DHT22;32017;43.700;11.820;2022-09-13T09:52:05;25.00;99.90
46283;DHT22;32017;43.700;11.820;2022-09-13T09:54:10;25.40;99.90
46283;DHT22;32017;43.700;11.820;2022-09-13T09:56:26;25.50;99.90
46283;DHT22;32017;43.700;11.820;2022-09-13T09:58:36;25.40;99.20
46283;DHT22;32017;43.700;11.820;2022-09-13T10:00:52;25.30;99.70
46283;DHT22;32017;43.700;11.820;2022-09-13T10:02:57;25.40;99.90
46283;DHT22;32017;43.700;11.820;2022-09-13T10:05:01;25.50;99.90
46283;DHT22;32017;43.700;11.820;2022-09-13T10:07:08;25.40;98.80
46283;DHT22;32017;43.700;11.820;2022-09-13T10:09:20;25.60;99.50
46283;DHT22;32017;43.700;11.820;2022-09-13T10:11:39;25.90;99.70
46283;DHT22;32017;43.700;11.820;2022-09-13T10:13:58;25.90;99.70
46283;DHT22;32017;43.700;11.820;2022-09-13T10:16:27;25.80;98.10
46283;DHT22;32017;43.700;11.820;2022-09-13T10:18:36;25.40;98.50
46283;DHT22;32017;43.700;11.820;2022-09-13T10:21:06;25.80;98.70
46283;DHT22;32017;43.700;11.820;2022-09-13T10:25:21;25.90;97.70
46283;DHT22;32017;43.700;11.820;2022-09-13T10:29:31;26.30;96.80
46283;DHT22;32017;43.700;11.820;2022-09-13T10:31:39;26.50;97.30
46283;DHT22;32017;43.700;11.820;2022-09-13T10:35:53;25.70;96.20
46283;DHT22;32017;43.700;11.820;2022-09-13T10:37:58;25.90;96.80
46283;DHT22;32017;43.700;11.820;2022-09-13T10:42:09;26.00;95.50
46283;DHT22;32017;43.700;11.820;2022-09-13T10:44:22;26.10;96.70
46283;DHT22;32017;43.700;11.820;2022-09-13T10:46:46;26.60;95.80
46283;DHT22;32017;43.700;11.820;2022-09-13T10:48:51;26.50;95.70
46283;DHT22;32017;43.700;11.820;2022-09-13T10:51:07;26.30;95.20
46283;DHT22;32017;43.700;11.820;2022-09-13T10:53:35;26.30;95.80
46283;DHT22;32017;43.700;11.820;2022-09-13T10:55:41;26.80;95.30
46283;DHT22;32017;43.700;11.820;2022-09-13T10:57:51;26.70;94.20
46283;DHT22;32017;43.700;11.820;2022-09-13T10:59:57;26.90;95.00
46283;DHT22;32017;43.700;11.820;2022-09-13T11:11:32;27.00;94.10
46283;DHT22;32017;43.700;11.820;2022-09-13T11:16:13;27.50;94.30
46283;DHT22;32017;43.700;11.820;2022-09-13T11:25:16;27.10;92.30
46283;DHT22;32017;43.700;11.820;2022-09-13T11:27:39;27.00;91.90
46283;DHT22;32017;43.700;11.820;2022-09-13T11:30:18;27.20;93.00
46283;DHT22;32017;43.700;11.820;2022-09-13T11:35:07;27.40;91.40
46283;DHT22;32017;43.700;11.820;2022-09-13T11:39:16;27.40;92.30
46283;DHT22;32017;43.700;11.820;2022-09-13T11:48:29;27.60;91.70
46283;DHT22;32017;43.700;11.820;2022-09-13T11:52:39;28.10;90.50
46283;DHT22;32017;43.700;11.820;2022-09-13T11:56:54;27.70;88.50
46283;DHT22;32017;43.700;11.820;2022-09-13T12:01:07;27.80;88.50
46283;DHT22;32017;43.700;11.820;2022-09-13T12:03:17;27.60;87.90
46283;DHT22;32017;43.700;11.820;2022-09-13T12:05:23;27.90;89.80
46283;DHT22;32017;43.700;11.820;2022-09-13T12:07:30;27.90;86.90
46283;DHT22;32017;43.700;11.820;2022-09-13T12:09:37;28.20;87.90
46283;DHT22;32017;43.700;11.820;2022-09-13T12:11:45;28.80;88.40
46283;DHT22;32017;43.700;11.820;2022-09-13T12:13:54;28.90;87.60
46283;DHT22;32017;43.700;11.820;2022-09-13T12:16:05;29.20;88.40
46283;DHT22;32017;43.700;11.820;2022-09-13T12:20:23;28.70;86.00
46283;DHT22;32017;43.700;11.820;2022-09-13T12:22:31;28.80;89.00
46283;DHT22;32017;43.700;11.820;2022-09-13T12:24:46;29.30;91.70
46283;DHT22;32017;43.700;11.820;2022-09-13T12:26:52;30.30;90.70
46283;DHT22;32017;43.700;11.820;2022-09-13T12:29:31;29.80;85.20
46283;DHT22;32017;43.700;11.820;2022-09-13T12:31:27;29.50;85.80
46283;DHT22;32017;43.700;11.820;2022-09-13T12:33:30;29.50;85.20
46283;DHT22;32017;43.700;11.820;2022-09-13T12:35:36;29.10;84.90
46283;DHT22;32017;43.700;11.820;2022-09-13T12:42:10;29.50;83.70
46283;DHT22;32017;43.700;11.820;2022-09-13T12:57:54;29.50;84.60
46283;DHT22;32017;43.700;11.820;2022-09-13T13:02:24;29.40;83.00
46283;DHT22;32017;43.700;11.820;2022-09-13T13:04:32;30.00;84.50
46283;DHT22;32017;43.700;11.820;2022-09-13T13:06:38;30.00;84.70
46283;DHT22;32017;43.700;11.820;2022-09-13T13:08:47;30.50;85.10
46283;DHT22;32017;43.700;11.820;2022-09-13T13:11:04;29.90;82.70
46283;DHT22;32017;43.700;11.820;2022-09-13T13:17:40;29.20;83.30
46283;DHT22;32017;43.700;11.820;2022-09-13T13:19:44;29.20;82.50
46283;DHT22;32017;43.700;11.820;2022-09-13T13:21:47;28.90;84.40
46283;DHT22;32017;43.700;11.820;2022-09-13T13:30:51;29.20;84.10
46283;DHT22;32017;43.700;11.820;2022-09-13T13:33:04;29.10;84.20
46283;DHT22;32017;43.700;11.820;2022-09-13T13:35:24;29.00;85.90
46283;DHT22;32017;43.700;11.820;2022-09-13T13:37:31;28.70;84.90
46283;DHT22;32017;43.700;11.820;2022-09-13T13:41:56;28.70;85.00
46283;DHT22;32017;43.700;11.820;2022-09-13T13:44:00;29.00;84.00
46283;DHT22;32017;43.700;11.820;2022-09-13T13:48:13;29.00;85.90
46283;DHT22;32017;43.700;11.820;2022-09-13T13:50:20;29.40;86.00
46283;DHT22;32017;43.700;11.820;2022-09-13T13:57:19;28.70;85.80
46283;DHT22;32017;43.700;11.820;2022-09-13T13:59:35;28.70;87.10
46283;DHT22;32017;43.700;11.820;2022-09-13T14:01:43;28.60;85.80
46283;DHT22;32017;43.700;11.820;2022-09-13T14:19:57;28.80;85.70
46283;DHT22;32017;43.700;11.820;2022-09-13T14:22:09;28.70;85.60
46283;DHT22;32017;43.700;11.820;2022-09-13T14:26:24;28.70;84.80
46283;DHT22;32017;43.700;11.820;2022-09-13T14:28:34;28.70;84.90
46283;DHT22;32017;43.700;11.820;2022-09-13T14:30:37;28.90;86.80
46283;DHT22;32017;43.700;11.820;2022-09-13T14:32:41;29.10;86.20
46283;DHT22;32017;43.700;11.820;2022-09-13T14:37:17;29.00;84.80
46283;DHT22;32017;43.700;11.820;2022-09-13T14:39:22;29.00;84.90
46283;DHT22;32017;43.700;11.820;2022-09-13T14:41:32;29.10;85.60
46283;DHT22;32017;43.700;11.820;2022-09-13T14:43:35;29.20;85.80
46283;DHT22;32017;43.700;11.820;2022-09-13T14:45:38;29.20;85.30
46283;DHT22;32017;43.700;11.820;2022-09-13T14:47:48;29.00;85.30
46283;DHT22;32017;43.700;11.820;2022-09-13T14:49:55;28.60;84.50
46283;DHT22;32017;43.700;11.820;2022-09-13T14:52:14;28.60;86.10
46283;DHT22;32017;43.700;11.820;2022-09-13T14:54:35;28.70;87.30
46283;DHT22;32017;43.700;11.820;2022-09-13T14:56:42;28.60;86.40
46283;DHT22;32017;43.700;11.820;2022-09-13T14:58:47;28.60;86.80
46283;DHT22;32017;43.700;11.820;2022-09-13T15:01:02;28.50;86.00
46283;DHT22;32017;43.700;11.820;2022-09-13T15:03:16;28.50;85.60
46283;DHT22;32017;43.700;11.820;2022-09-13T15:05:39;28.50;85.80
46283;DHT22;32017;43.700;11.820;2022-09-13T15:07:41;28.60;86.20
46283;DHT22;32017;43.700;11.820;2022-09-13T15:09:48;28.40;86.40
46283;DHT22;32017;43.700;11.820;2022-09-13T15:16:24;28.20;86.70
46283;DHT22;32017;43.700;11.820;2022-09-13T15:18:29;28.20;86.30
46283;DHT22;32017;43.700;11.820;2022-09-13T15:22:51;28.40;87.00
46283;DHT22;32017;43.700;11.820;2022-09-13T15:24:56;28.20;86.30
46283;DHT22;32017;43.700;11.820;2022-09-13T15:27:00;28.20;87.20
46283;DHT22;32017;43.700;11.820;2022-09-13T15:29:11;28.10;87.10
46283;DHT22;32017;43.700;11.820;2022-09-13T15:31:27;28.10;87.40
46283;DHT22;32017;43.700;11.820;2022-09-13T15:33:31;28.10;86.50
46283;DHT22;32017;43.700;11.820;2022-09-13T15:38:26;28.20;88.50
46283;DHT22;32017;43.700;11.820;2022-09-13T15:40:40;28.20;87.80
46283;DHT22;32017;43.700;11.820;2022-09-13T15:42:52;28.20;88.40
46283;DHT22;32017;43.700;11.820;2022-09-13T15:44:56;28.20;87.80
46283;DHT22;32017;43.700;11.820;2022-09-13T15:46:59;28.10;88.00
46283;DHT22;32017;43.700;11.820;2022-09-13T15:49:05;28.10;89.30
46283;DHT22;32017;43.700;11.820;2022-09-13T15:51:12;28.00;88.50
46283;DHT22;32017;43.700;11.820;2022-09-13T15:53:14;27.90;89.40
46283;DHT22;32017;43.700;11.820;2022-09-13T15:55:17;27.80;87.50
46283;DHT22;32017;43.700;11.820;2022-09-13T15:57:23;27.70;89.10
46283;DHT22;32017;43.700;11.820;2022-09-13T15:59:26;27.70;89.00
46283;DHT22;32017;43.700;11.820;2022-09-13T16:01:33;27.60;88.30
46283;DHT22;32017;43.700;11.820;2022-09-13T16:03:44;27.60;89.70
46283;DHT22;32017;43.700;11.820;2022-09-13T16:05:46;27.60;90.00
46283;DHT22;32017;43.700;11.820;2022-09-13T16:07:48;27.60;89.10
46283;DHT22;32017;43.700;11.820;2022-09-13T16:09:51;27.30;89.40
46283;DHT22;32017;43.700;11.820;2022-09-13T16:12:05;27.10;90.00
46283;DHT22;32017;43.700;11.820;2022-09-13T16:14:07;27.00;90.10
46283;DHT22;32017;43.700;11.820;2022-09-13T16:16:16;27.00;89.70
46283;DHT22;32017;43.700;11.820;2022-09-13T16:18:22;27.10;89.20